sensor_id;sensor_type;location;lat;lon;timestamp;P1;durP1;ratioP1;P2;durP2;ratioP2
56810;SDS011;42691;47.234;27.494;2023-02-15T00:00:14;21.13;;;11.45;;
56810;SDS011;42691;47.234;27.494;2023-02-15T00:02:40;16.95;;;10.88;;
56810;SDS011;42691;47.234;27.494;2023-02-15T00:05:05;16.60;;;10.65;;
56810;SDS011;42691;47.234;27.494;2023-02-15T00:07:31;14.43;;;11.07;;
56810;SDS011;42691;47.234;27.494;2023-02-15T00:09:57;24.42;;;14.00;;
56810;SDS011;42691;47.234;27.494;2023-02-15T00:12:23;17.00;;;13.50;;
56810;SDS011;42691;47.234;27.494;2023-02-15T00:14:48;18.20;;;12.05;;
56810;SDS011;42691;47.234;27.494;2023-02-15T00:17:14;17.35;;;11.00;;
56810;SDS011;42691;47.234;27.494;2023-02-15T00:19:39;14.32;;;10.95;;
56810;SDS011;42691;47.234;27.494;2023-02-15T00:22:05;18.80;;;12.18;;
56810;SDS011;42691;47.234;27.494;2023-02-15T00:24:31;19.00;;;12.43;;
56810;SDS011;42691;47.234;27.494;2023-02-15T00:26:57;14.85;;;10.75;;
56810;SDS011;42691;47.234;27.494;2023-02-15T00:29:22;14.57;;;12.77;;
56810;SDS011;42691;47.234;27.494;2023-02-15T00:31:48;16.10;;;11.13;;
56810;SDS011;42691;47.234;27.494;2023-02-15T00:34:18;21.02;;;12.75;;
56810;SDS011;42691;47.234;27.494;2023-02-15T00:36:48;14.65;;;12.07;;
56810;SDS011;42691;47.234;27.494;2023-02-15T00:39:14;21.90;;;10.93;;
56810;SDS011;42691;47.234;27.494;2023-02-15T00:41:41;20.70;;;13.23;;
56810;SDS011;42691;47.234;27.494;2023-02-15T00:44:07;13.90;;;12.02;;
56810;SDS011;42691;47.234;27.494;2023-02-15T00:46:33;17.60;;;12.35;;
56810;SDS011;42691;47.234;27.494;2023-02-15T00:48:59;18.70;;;13.40;;
56810;SDS011;42691;47.234;27.494;2023-02-15T00:51:25;13.60;;;11.85;;
56810;SDS011;42691;47.234;27.494;2023-02-15T00:53:51;18.98;;;13.55;;
56810;SDS011;42691;47.234;27.494;2023-02-15T00:56:16;14.80;;;12.18;;
56810;SDS011;42691;47.234;27.494;2023-02-15T00:58:42;20.45;;;12.07;;
56810;SDS011;42691;47.234;27.494;2023-02-15T01:01:09;15.02;;;12.10;;
56810;SDS011;42691;47.234;27.494;2023-02-15T01:03:36;14.13;;;11.70;;
56810;SDS011;42691;47.234;27.494;2023-02-15T01:06:02;21.15;;;13.15;;
56810;SDS011;42691;47.234;27.494;2023-02-15T01:08:28;18.40;;;14.18;;
56810;SDS011;42691;47.234;27.494;2023-02-15T01:10:54;29.08;;;14.88;;
56810;SDS011;42691;47.234;27.494;2023-02-15T01:13:19;15.85;;;12.20;;
56810;SDS011;42691;47.234;27.494;2023-02-15T01:15:45;19.67;;;13.75;;
56810;SDS011;42691;47.234;27.494;2023-02-15T01:18:11;16.35;;;11.75;;
56810;SDS011;42691;47.234;27.494;2023-02-15T01:20:37;17.60;;;12.40;;
56810;SDS011;42691;47.234;27.494;2023-02-15T01:23:06;17.00;;;12.75;;
56810;SDS011;42691;47.234;27.494;2023-02-15T01:25:32;18.17;;;12.75;;
56810;SDS011;42691;47.234;27.494;2023-02-15T01:27:59;17.10;;;14.55;;
56810;SDS011;42691;47.234;27.494;2023-02-15T01:30:24;17.02;;;12.30;;
56810;SDS011;42691;47.234;27.494;2023-02-15T01:32:50;15.77;;;12.38;;
56810;SDS011;42691;47.234;27.494;2023-02-15T01:35:15;18.20;;;13.07;;
56810;SDS011;42691;47.234;27.494;2023-02-15T01:37:41;20.25;;;13.07;;
56810;SDS011;42691;47.234;27.494;2023-02-15T01:40:08;14.15;;;11.68;;
56810;SDS011;42691;47.234;27.494;2023-02-15T01:42:37;17.73;;;13.25;;
56810;SDS011;42691;47.234;27.494;2023-02-15T01:45:03;15.35;;;12.05;;
56810;SDS011;42691;47.234;27.494;2023-02-15T01:50:16;13.32;;;11.93;;
56810;SDS011;42691;47.234;27.494;2023-02-15T01:52:48;15.35;;;12.20;;
56810;SDS011;42691;47.234;27.494;2023-02-15T01:55:17;15.82;;;11.40;;
56810;SDS011;42691;47.234;27.494;2023-02-15T01:57:44;18.30;;;11.82;;
56810;SDS011;42691;47.234;27.494;2023-02-15T02:00:12;11.73;;;10.50;;
56810;SDS011;42691;47.234;27.494;2023-02-15T02:02:39;15.15;;;12.68;;
56810;SDS011;42691;47.234;27.494;2023-02-15T02:05:07;18.50;;;11.85;;
56810;SDS011;42691;47.234;27.494;2023-02-15T02:07:33;17.85;;;12.65;;
56810;SDS011;42691;47.234;27.494;2023-02-15T02:10:02;12.50;;;10.27;;
56810;SDS011;42691;47.234;27.494;2023-02-15T02:12:29;20.48;;;11.70;;
56810;SDS011;42691;47.234;27.494;2023-02-15T02:14:56;15.75;;;12.48;;
56810;SDS011;42691;47.234;27.494;2023-02-15T02:17:27;12.57;;;11.13;;
56810;SDS011;42691;47.234;27.494;2023-02-15T02:20:15;21.77;;;14.05;;
56810;SDS011;42691;47.234;27.494;2023-02-15T02:33:50;17.33;;;13.20;;
56810;SDS011;42691;47.234;27.494;2023-02-15T02:39:19;20.38;;;12.80;;
56810;SDS011;42691;47.234;27.494;2023-02-15T02:41:56;17.95;;;12.68;;
56810;SDS011;42691;47.234;27.494;2023-02-15T02:47:05;15.80;;;12.88;;
56810;SDS011;42691;47.234;27.494;2023-02-15T02:49:44;24.60;;;13.45;;
56810;SDS011;42691;47.234;27.494;2023-02-15T02:55:01;20.33;;;16.23;;
56810;SDS011;42691;47.234;27.494;2023-02-15T02:57:36;21.70;;;15.00;;
56810;SDS011;42691;47.234;27.494;2023-02-15T03:00:05;19.95;;;13.80;;
56810;SDS011;42691;47.234;27.494;2023-02-15T03:02:35;22.65;;;12.50;;
56810;SDS011;42691;47.234;27.494;2023-02-15T03:05:05;16.00;;;12.77;;
56810;SDS011;42691;47.234;27.494;2023-02-15T03:07:35;15.45;;;12.88;;
56810;SDS011;42691;47.234;27.494;2023-02-15T03:10:02;29.08;;;15.15;;
56810;SDS011;42691;47.234;27.494;2023-02-15T03:12:34;26.05;;;16.30;;
56810;SDS011;42691;47.234;27.494;2023-02-15T03:15:02;19.90;;;12.48;;
56810;SDS011;42691;47.234;27.494;2023-02-15T03:17:36;18.33;;;12.27;;
56810;SDS011;42691;47.234;27.494;2023-02-15T03:20:26;17.38;;;13.23;;
56810;SDS011;42691;47.234;27.494;2023-02-15T03:23:04;19.65;;;13.32;;
56810;SDS011;42691;47.234;27.494;2023-02-15T03:25:39;17.85;;;13.25;;
56810;SDS011;42691;47.234;27.494;2023-02-15T03:28:09;21.77;;;14.50;;
56810;SDS011;42691;47.234;27.494;2023-02-15T03:30:40;18.20;;;15.07;;
56810;SDS011;42691;47.234;27.494;2023-02-15T03:33:09;22.08;;;14.50;;
56810;SDS011;42691;47.234;27.494;2023-02-15T03:35:39;15.68;;;12.90;;
56810;SDS011;42691;47.234;27.494;2023-02-15T03:38:12;17.52;;;13.52;;
56810;SDS011;42691;47.234;27.494;2023-02-15T03:40:42;16.60;;;14.05;;
56810;SDS011;42691;47.234;27.494;2023-02-15T03:48:57;18.40;;;14.40;;
56810;SDS011;42691;47.234;27.494;2023-02-15T03:51:28;18.90;;;13.55;;
56810;SDS011;42691;47.234;27.494;2023-02-15T03:53:58;16.50;;;12.98;;
56810;SDS011;42691;47.234;27.494;2023-02-15T03:56:25;25.00;;;16.02;;
56810;SDS011;42691;47.234;27.494;2023-02-15T03:58:51;21.33;;;13.80;;
56810;SDS011;42691;47.234;27.494;2023-02-15T04:01:55;19.25;;;16.00;;
56810;SDS011;42691;47.234;27.494;2023-02-15T04:04:34;23.17;;;13.82;;
56810;SDS011;42691;47.234;27.494;2023-02-15T04:07:05;21.20;;;14.50;;
56810;SDS011;42691;47.234;27.494;2023-02-15T04:09:32;24.65;;;14.20;;
56810;SDS011;42691;47.234;27.494;2023-02-15T04:12:16;18.08;;;13.52;;
56810;SDS011;42691;47.234;27.494;2023-02-15T04:14:41;26.40;;;15.30;;
56810;SDS011;42691;47.234;27.494;2023-02-15T04:17:25;15.98;;;13.00;;
56810;SDS011;42691;47.234;27.494;2023-02-15T04:19:51;14.27;;;12.57;;
56810;SDS011;42691;47.234;27.494;2023-02-15T04:22:35;19.98;;;15.52;;
56810;SDS011;42691;47.234;27.494;2023-02-15T04:25:19;18.65;;;12.38;;
56810;SDS011;42691;47.234;27.494;2023-02-15T04:27:46;20.17;;;14.98;;
56810;SDS011;42691;47.234;27.494;2023-02-15T04:30:14;31.13;;;16.08;;
56810;SDS011;42691;47.234;27.494;2023-02-15T04:32:40;17.73;;;14.30;;
56810;SDS011;42691;47.234;27.494;2023-02-15T04:35:06;33.20;;;16.48;;
56810;SDS011;42691;47.234;27.494;2023-02-15T04:37:32;23.67;;;14.70;;
56810;SDS011;42691;47.234;27.494;2023-02-15T04:39:58;18.88;;;14.10;;
56810;SDS011;42691;47.234;27.494;2023-02-15T04:42:24;20.67;;;14.20;;
56810;SDS011;42691;47.234;27.494;2023-02-15T04:44:51;17.45;;;14.07;;
56810;SDS011;42691;47.234;27.494;2023-02-15T04:47:17;18.88;;;12.27;;
56810;SDS011;42691;47.234;27.494;2023-02-15T04:49:42;17.95;;;14.20;;
56810;SDS011;42691;47.234;27.494;2023-02-15T04:52:07;23.38;;;14.93;;
56810;SDS011;42691;47.234;27.494;2023-02-15T04:54:33;22.52;;;16.05;;
56810;SDS011;42691;47.234;27.494;2023-02-15T04:56:58;17.02;;;13.90;;
56810;SDS011;42691;47.234;27.494;2023-02-15T04:59:24;27.00;;;16.00;;
56810;SDS011;42691;47.234;27.494;2023-02-15T05:01:49;23.00;;;16.25;;
56810;SDS011;42691;47.234;27.494;2023-02-15T05:04:15;21.25;;;15.27;;
56810;SDS011;42691;47.234;27.494;2023-02-15T05:06:40;21.25;;;15.63;;
56810;SDS011;42691;47.234;27.494;2023-02-15T05:09:06;21.55;;;15.73;;
56810;SDS011;42691;47.234;27.494;2023-02-15T05:11:31;20.70;;;14.98;;
56810;SDS011;42691;47.234;27.494;2023-02-15T05:13:57;20.23;;;15.15;;
56810;SDS011;42691;47.234;27.494;2023-02-15T05:16:22;22.70;;;15.60;;
56810;SDS011;42691;47.234;27.494;2023-02-15T05:18:47;21.70;;;14.30;;
56810;SDS011;42691;47.234;27.494;2023-02-15T05:21:13;17.75;;;14.75;;
56810;SDS011;42691;47.234;27.494;2023-02-15T05:23:41;19.08;;;17.00;;
56810;SDS011;42691;47.234;27.494;2023-02-15T05:26:08;19.30;;;15.15;;
56810;SDS011;42691;47.234;27.494;2023-02-15T05:28:54;26.48;;;16.85;;
56810;SDS011;42691;47.234;27.494;2023-02-15T05:31:20;24.77;;;14.63;;
56810;SDS011;42691;47.234;27.494;2023-02-15T05:33:45;17.02;;;13.18;;
56810;SDS011;42691;47.234;27.494;2023-02-15T05:36:11;22.35;;;15.00;;
56810;SDS011;42691;47.234;27.494;2023-02-15T05:38:37;20.50;;;16.10;;
56810;SDS011;42691;47.234;27.494;2023-02-15T05:41:06;23.55;;;16.83;;
56810;SDS011;42691;47.234;27.494;2023-02-15T05:43:33;23.48;;;16.65;;
56810;SDS011;42691;47.234;27.494;2023-02-15T05:45:59;26.70;;;14.60;;
56810;SDS011;42691;47.234;27.494;2023-02-15T05:48:25;32.22;;;17.05;;
56810;SDS011;42691;47.234;27.494;2023-02-15T05:51:02;19.45;;;16.48;;
56810;SDS011;42691;47.234;27.494;2023-02-15T05:53:33;21.33;;;13.60;;
56810;SDS011;42691;47.234;27.494;2023-02-15T05:56:01;19.20;;;14.38;;
56810;SDS011;42691;47.234;27.494;2023-02-15T05:58:34;23.30;;;16.48;;
56810;SDS011;42691;47.234;27.494;2023-02-15T06:01:11;21.00;;;14.48;;
56810;SDS011;42691;47.234;27.494;2023-02-15T06:03:38;21.48;;;14.38;;
56810;SDS011;42691;47.234;27.494;2023-02-15T06:06:04;21.52;;;15.23;;
56810;SDS011;42691;47.234;27.494;2023-02-15T06:08:30;21.27;;;14.35;;
56810;SDS011;42691;47.234;27.494;2023-02-15T06:10:56;21.33;;;15.00;;
56810;SDS011;42691;47.234;27.494;2023-02-15T06:13:21;17.55;;;13.00;;
56810;SDS011;42691;47.234;27.494;2023-02-15T06:15:47;27.65;;;14.95;;
56810;SDS011;42691;47.234;27.494;2023-02-15T06:18:12;31.25;;;15.73;;
56810;SDS011;42691;47.234;27.494;2023-02-15T06:20:38;19.83;;;13.38;;
56810;SDS011;42691;47.234;27.494;2023-02-15T06:23:03;26.48;;;17.05;;
56810;SDS011;42691;47.234;27.494;2023-02-15T06:25:29;18.75;;;14.50;;
56810;SDS011;42691;47.234;27.494;2023-02-15T06:27:54;23.25;;;15.15;;
56810;SDS011;42691;47.234;27.494;2023-02-15T06:30:20;22.25;;;17.27;;
56810;SDS011;42691;47.234;27.494;2023-02-15T06:32:45;22.98;;;17.73;;
56810;SDS011;42691;47.234;27.494;2023-02-15T06:35:11;22.45;;;17.95;;
56810;SDS011;42691;47.234;27.494;2023-02-15T06:37:36;28.85;;;16.02;;
56810;SDS011;42691;47.234;27.494;2023-02-15T06:40:02;18.50;;;15.75;;
56810;SDS011;42691;47.234;27.494;2023-02-15T06:42:29;18.17;;;16.23;;
56810;SDS011;42691;47.234;27.494;2023-02-15T06:44:54;21.77;;;15.35;;
56810;SDS011;42691;47.234;27.494;2023-02-15T06:47:20;22.70;;;17.60;;
56810;SDS011;42691;47.234;27.494;2023-02-15T06:49:45;18.55;;;14.38;;
56810;SDS011;42691;47.234;27.494;2023-02-15T06:52:11;25.27;;;20.10;;
56810;SDS011;42691;47.234;27.494;2023-02-15T06:54:36;21.92;;;15.48;;
56810;SDS011;42691;47.234;27.494;2023-02-15T06:57:02;21.73;;;15.57;;
56810;SDS011;42691;47.234;27.494;2023-02-15T06:59:27;21.60;;;16.45;;
56810;SDS011;42691;47.234;27.494;2023-02-15T07:01:53;19.77;;;13.70;;
56810;SDS011;42691;47.234;27.494;2023-02-15T07:04:18;20.77;;;16.30;;
56810;SDS011;42691;47.234;27.494;2023-02-15T07:06:44;19.33;;;14.73;;
56810;SDS011;42691;47.234;27.494;2023-02-15T07:09:10;24.08;;;17.92;;
56810;SDS011;42691;47.234;27.494;2023-02-15T07:11:35;24.02;;;15.13;;
56810;SDS011;42691;47.234;27.494;2023-02-15T07:14:19;27.23;;;17.23;;
56810;SDS011;42691;47.234;27.494;2023-02-15T07:16:45;23.42;;;17.05;;
56810;SDS011;42691;47.234;27.494;2023-02-15T07:19:10;21.25;;;17.50;;
56810;SDS011;42691;47.234;27.494;2023-02-15T07:21:36;25.20;;;16.10;;
56810;SDS011;42691;47.234;27.494;2023-02-15T07:24:02;23.70;;;17.20;;
56810;SDS011;42691;47.234;27.494;2023-02-15T07:26:28;18.92;;;14.35;;
56810;SDS011;42691;47.234;27.494;2023-02-15T07:28:53;17.70;;;15.70;;
56810;SDS011;42691;47.234;27.494;2023-02-15T07:31:19;21.27;;;15.63;;
56810;SDS011;42691;47.234;27.494;2023-02-15T07:33:44;22.42;;;14.80;;
56810;SDS011;42691;47.234;27.494;2023-02-15T07:36:10;16.20;;;13.18;;
56810;SDS011;42691;47.234;27.494;2023-02-15T07:38:37;23.27;;;15.68;;
56810;SDS011;42691;47.234;27.494;2023-02-15T07:41:05;16.55;;;13.38;;
56810;SDS011;42691;47.234;27.494;2023-02-15T07:43:36;13.93;;;11.63;;
56810;SDS011;42691;47.234;27.494;2023-02-15T07:46:04;22.83;;;12.23;;
56810;SDS011;42691;47.234;27.494;2023-02-15T07:48:32;17.98;;;12.57;;
56810;SDS011;42691;47.234;27.494;2023-02-15T07:50:59;19.17;;;12.80;;
56810;SDS011;42691;47.234;27.494;2023-02-15T07:53:25;18.23;;;13.50;;
56810;SDS011;42691;47.234;27.494;2023-02-15T07:55:51;15.70;;;13.82;;
56810;SDS011;42691;47.234;27.494;2023-02-15T07:58:17;16.67;;;12.68;;
56810;SDS011;42691;47.234;27.494;2023-02-15T08:00:43;16.05;;;13.60;;
56810;SDS011;42691;47.234;27.494;2023-02-15T08:03:26;17.45;;;12.05;;
56810;SDS011;42691;47.234;27.494;2023-02-15T08:05:58;14.80;;;12.50;;
56810;SDS011;42691;47.234;27.494;2023-02-15T08:08:25;16.88;;;12.48;;
56810;SDS011;42691;47.234;27.494;2023-02-15T08:16:29;16.10;;;12.15;;
56810;SDS011;42691;47.234;27.494;2023-02-15T08:19:06;13.77;;;11.20;;
56810;SDS011;42691;47.234;27.494;2023-02-15T08:21:36;19.08;;;11.02;;
56810;SDS011;42691;47.234;27.494;2023-02-15T08:24:03;17.00;;;13.07;;
56810;SDS011;42691;47.234;27.494;2023-02-15T08:26:30;20.55;;;13.07;;
56810;SDS011;42691;47.234;27.494;2023-02-15T08:28:57;17.48;;;10.68;;
56810;SDS011;42691;47.234;27.494;2023-02-15T08:31:23;18.17;;;11.93;;
56810;SDS011;42691;47.234;27.494;2023-02-15T08:33:49;15.90;;;11.18;;
56810;SDS011;42691;47.234;27.494;2023-02-15T08:36:17;17.10;;;11.07;;
56810;SDS011;42691;47.234;27.494;2023-02-15T08:38:45;13.13;;;9.95;;
56810;SDS011;42691;47.234;27.494;2023-02-15T08:41:12;13.10;;;10.25;;
56810;SDS011;42691;47.234;27.494;2023-02-15T08:43:38;15.48;;;13.15;;
56810;SDS011;42691;47.234;27.494;2023-02-15T08:46:05;20.92;;;12.82;;
56810;SDS011;42691;47.234;27.494;2023-02-15T08:48:31;14.88;;;10.68;;
56810;SDS011;42691;47.234;27.494;2023-02-15T08:50:56;21.48;;;11.68;;
56810;SDS011;42691;47.234;27.494;2023-02-15T08:53:22;21.75;;;11.68;;
56810;SDS011;42691;47.234;27.494;2023-02-15T08:55:54;14.57;;;10.82;;
56810;SDS011;42691;47.234;27.494;2023-02-15T08:58:23;17.85;;;12.40;;
56810;SDS011;42691;47.234;27.494;2023-02-15T09:00:49;12.82;;;10.85;;
56810;SDS011;42691;47.234;27.494;2023-02-15T09:03:15;14.13;;;10.32;;
56810;SDS011;42691;47.234;27.494;2023-02-15T09:05:40;22.40;;;10.75;;
56810;SDS011;42691;47.234;27.494;2023-02-15T09:08:06;15.85;;;11.48;;
56810;SDS011;42691;47.234;27.494;2023-02-15T09:10:31;12.40;;;10.65;;
56810;SDS011;42691;47.234;27.494;2023-02-15T09:12:56;13.82;;;9.40;;
56810;SDS011;42691;47.234;27.494;2023-02-15T09:15:22;13.57;;;10.60;;
56810;SDS011;42691;47.234;27.494;2023-02-15T09:17:47;13.02;;;8.15;;
56810;SDS011;42691;47.234;27.494;2023-02-15T09:20:13;13.95;;;9.82;;
56810;SDS011;42691;47.234;27.494;2023-02-15T09:22:38;11.18;;;6.88;;
56810;SDS011;42691;47.234;27.494;2023-02-15T09:25:03;11.00;;;7.97;;
56810;SDS011;42691;47.234;27.494;2023-02-15T09:27:29;13.50;;;9.88;;
56810;SDS011;42691;47.234;27.494;2023-02-15T09:29:55;8.70;;;6.47;;
56810;SDS011;42691;47.234;27.494;2023-02-15T09:32:20;10.55;;;7.43;;
56810;SDS011;42691;47.234;27.494;2023-02-15T09:34:47;10.55;;;7.20;;
56810;SDS011;42691;47.234;27.494;2023-02-15T09:37:12;8.63;;;6.25;;
56810;SDS011;42691;47.234;27.494;2023-02-15T09:39:39;8.00;;;5.82;;
56810;SDS011;42691;47.234;27.494;2023-02-15T09:42:29;8.52;;;6.55;;
56810;SDS011;42691;47.234;27.494;2023-02-15T09:48:17;11.07;;;6.05;;
56810;SDS011;42691;47.234;27.494;2023-02-15T09:59:11;7.15;;;5.75;;
56810;SDS011;42691;47.234;27.494;2023-02-15T10:13:02;28.02;;;7.47;;
56810;SDS011;42691;47.234;27.494;2023-02-15T10:26:49;9.75;;;5.88;;
56810;SDS011;42691;47.234;27.494;2023-02-15T10:31:48;8.35;;;6.40;;
56810;SDS011;42691;47.234;27.494;2023-02-15T10:34:40;6.90;;;5.57;;
56810;SDS011;42691;47.234;27.494;2023-02-15T10:50:36;11.10;;;6.03;;
56810;SDS011;42691;47.234;27.494;2023-02-15T10:53:25;11.73;;;6.43;;
56810;SDS011;42691;47.234;27.494;2023-02-15T10:56:24;7.20;;;5.97;;
56810;SDS011;42691;47.234;27.494;2023-02-15T11:01:34;8.63;;;6.10;;
56810;SDS011;42691;47.234;27.494;2023-02-15T11:06:43;13.63;;;6.10;;
56810;SDS011;42691;47.234;27.494;2023-02-15T11:09:16;11.77;;;5.55;;
56810;SDS011;42691;47.234;27.494;2023-02-15T11:11:47;6.88;;;4.75;;
56810;SDS011;42691;47.234;27.494;2023-02-15T11:14:17;13.25;;;5.88;;
56810;SDS011;42691;47.234;27.494;2023-02-15T11:16:46;12.13;;;6.57;;
56810;SDS011;42691;47.234;27.494;2023-02-15T11:19:21;9.27;;;5.60;;
56810;SDS011;42691;47.234;27.494;2023-02-15T11:21:53;8.63;;;6.20;;
56810;SDS011;42691;47.234;27.494;2023-02-15T11:24:24;9.63;;;6.15;;
56810;SDS011;42691;47.234;27.494;2023-02-15T11:27:10;12.13;;;5.45;;
56810;SDS011;42691;47.234;27.494;2023-02-15T11:29:53;10.95;;;6.45;;
56810;SDS011;42691;47.234;27.494;2023-02-15T11:32:37;12.90;;;7.43;;
56810;SDS011;42691;47.234;27.494;2023-02-15T11:37:40;13.05;;;7.75;;
56810;SDS011;42691;47.234;27.494;2023-02-15T11:40:26;11.65;;;4.80;;
56810;SDS011;42691;47.234;27.494;2023-02-15T11:42:56;7.70;;;5.00;;
56810;SDS011;42691;47.234;27.494;2023-02-15T11:45:30;9.45;;;6.70;;
56810;SDS011;42691;47.234;27.494;2023-02-15T11:47:59;8.57;;;5.63;;
56810;SDS011;42691;47.234;27.494;2023-02-15T11:50:27;6.20;;;4.88;;
56810;SDS011;42691;47.234;27.494;2023-02-15T11:53:02;8.82;;;6.75;;
56810;SDS011;42691;47.234;27.494;2023-02-15T11:55:30;11.15;;;6.60;;
56810;SDS011;42691;47.234;27.494;2023-02-15T11:58:01;10.68;;;5.80;;
56810;SDS011;42691;47.234;27.494;2023-02-15T12:00:38;10.38;;;6.88;;
56810;SDS011;42691;47.234;27.494;2023-02-15T12:03:09;9.77;;;6.10;;
56810;SDS011;42691;47.234;27.494;2023-02-15T12:05:40;6.63;;;5.15;;
56810;SDS011;42691;47.234;27.494;2023-02-15T12:08:12;10.15;;;5.95;;
56810;SDS011;42691;47.234;27.494;2023-02-15T12:10:57;14.90;;;8.85;;
56810;SDS011;42691;47.234;27.494;2023-02-15T12:13:27;10.50;;;7.43;;
56810;SDS011;42691;47.234;27.494;2023-02-15T12:15:54;7.43;;;5.28;;
56810;SDS011;42691;47.234;27.494;2023-02-15T12:21:02;13.13;;;5.80;;
56810;SDS011;42691;47.234;27.494;2023-02-15T12:23:32;10.00;;;6.05;;
56810;SDS011;42691;47.234;27.494;2023-02-15T12:25:58;8.50;;;6.63;;
56810;SDS011;42691;47.234;27.494;2023-02-15T12:31:02;10.98;;;7.03;;
56810;SDS011;42691;47.234;27.494;2023-02-15T12:39:14;7.45;;;4.70;;
56810;SDS011;42691;47.234;27.494;2023-02-15T12:41:44;9.00;;;4.28;;
56810;SDS011;42691;47.234;27.494;2023-02-15T12:44:26;8.85;;;5.65;;
56810;SDS011;42691;47.234;27.494;2023-02-15T12:47:01;7.95;;;5.28;;
56810;SDS011;42691;47.234;27.494;2023-02-15T12:49:34;13.68;;;4.97;;
56810;SDS011;42691;47.234;27.494;2023-02-15T12:52:04;7.40;;;4.85;;
56810;SDS011;42691;47.234;27.494;2023-02-15T12:54:48;9.00;;;5.47;;
56810;SDS011;42691;47.234;27.494;2023-02-15T12:57:23;9.23;;;4.53;;
56810;SDS011;42691;47.234;27.494;2023-02-15T13:00:00;7.80;;;4.65;;
56810;SDS011;42691;47.234;27.494;2023-02-15T13:02:29;7.72;;;4.40;;
56810;SDS011;42691;47.234;27.494;2023-02-15T13:05:10;10.60;;;6.18;;
56810;SDS011;42691;47.234;27.494;2023-02-15T13:07:52;8.13;;;4.63;;
56810;SDS011;42691;47.234;27.494;2023-02-15T13:10:26;7.57;;;4.18;;
56810;SDS011;42691;47.234;27.494;2023-02-15T13:12:55;4.95;;;4.45;;
56810;SDS011;42691;47.234;27.494;2023-02-15T13:15:31;6.68;;;4.55;;
56810;SDS011;42691;47.234;27.494;2023-02-15T13:18:00;7.22;;;5.05;;
56810;SDS011;42691;47.234;27.494;2023-02-15T13:20:28;13.57;;;5.47;;
56810;SDS011;42691;47.234;27.494;2023-02-15T13:22:57;6.95;;;3.90;;
56810;SDS011;42691;47.234;27.494;2023-02-15T13:25:28;4.75;;;3.47;;
56810;SDS011;42691;47.234;27.494;2023-02-15T13:28:00;7.03;;;5.00;;
56810;SDS011;42691;47.234;27.494;2023-02-15T13:30:42;7.22;;;4.60;;
56810;SDS011;42691;47.234;27.494;2023-02-15T13:47:36;9.48;;;3.83;;
56810;SDS011;42691;47.234;27.494;2023-02-15T13:55:40;6.43;;;4.32;;
56810;SDS011;42691;47.234;27.494;2023-02-15T14:06:14;7.25;;;4.78;;
56810;SDS011;42691;47.234;27.494;2023-02-15T14:19:39;14.38;;;4.70;;
56810;SDS011;42691;47.234;27.494;2023-02-15T14:30:57;6.20;;;2.92;;
56810;SDS011;42691;47.234;27.494;2023-02-15T14:36:00;8.20;;;5.85;;
56810;SDS011;42691;47.234;27.494;2023-02-15T14:41:18;5.75;;;3.67;;
56810;SDS011;42691;47.234;27.494;2023-02-15T14:49:32;4.82;;;3.67;;
56810;SDS011;42691;47.234;27.494;2023-02-15T14:52:01;12.40;;;4.50;;
56810;SDS011;42691;47.234;27.494;2023-02-15T14:59:37;6.93;;;3.78;;
56810;SDS011;42691;47.234;27.494;2023-02-15T15:09:37;9.35;;;3.97;;
56810;SDS011;42691;47.234;27.494;2023-02-15T15:14:46;25.15;;;6.22;;
56810;SDS011;42691;47.234;27.494;2023-02-15T15:17:13;7.68;;;3.97;;
56810;SDS011;42691;47.234;27.494;2023-02-15T15:22:38;9.55;;;4.18;;
56810;SDS011;42691;47.234;27.494;2023-02-15T15:32:44;11.07;;;6.45;;
56810;SDS011;42691;47.234;27.494;2023-02-15T15:49:16;8.23;;;4.25;;
56810;SDS011;42691;47.234;27.494;2023-02-15T15:51:44;9.50;;;4.47;;
56810;SDS011;42691;47.234;27.494;2023-02-15T15:54:17;8.32;;;4.60;;
56810;SDS011;42691;47.234;27.494;2023-02-15T15:56:47;14.10;;;5.10;;
56810;SDS011;42691;47.234;27.494;2023-02-15T15:59:20;8.02;;;4.30;;
56810;SDS011;42691;47.234;27.494;2023-02-15T16:01:49;6.45;;;4.55;;
56810;SDS011;42691;47.234;27.494;2023-02-15T16:04:28;7.20;;;5.40;;
56810;SDS011;42691;47.234;27.494;2023-02-15T16:06:56;10.50;;;5.35;;
56810;SDS011;42691;47.234;27.494;2023-02-15T16:09:24;9.00;;;4.72;;
56810;SDS011;42691;47.234;27.494;2023-02-15T16:11:52;7.50;;;4.90;;
56810;SDS011;42691;47.234;27.494;2023-02-15T16:16:56;9.70;;;7.15;;
56810;SDS011;42691;47.234;27.494;2023-02-15T16:19:28;9.35;;;6.25;;
56810;SDS011;42691;47.234;27.494;2023-02-15T16:21:58;8.97;;;5.37;;
56810;SDS011;42691;47.234;27.494;2023-02-15T16:24:34;12.65;;;6.68;;
56810;SDS011;42691;47.234;27.494;2023-02-15T16:29:47;14.73;;;9.90;;
56810;SDS011;42691;47.234;27.494;2023-02-15T16:32:17;11.45;;;6.70;;
56810;SDS011;42691;47.234;27.494;2023-02-15T16:35:02;8.90;;;5.97;;
56810;SDS011;42691;47.234;27.494;2023-02-15T16:37:31;11.98;;;10.02;;
56810;SDS011;42691;47.234;27.494;2023-02-15T16:39:58;12.27;;;9.32;;
56810;SDS011;42691;47.234;27.494;2023-02-15T16:42:24;16.25;;;7.97;;
56810;SDS011;42691;47.234;27.494;2023-02-15T16:47:33;10.48;;;6.40;;
56810;SDS011;42691;47.234;27.494;2023-02-15T16:50:05;12.70;;;7.35;;
56810;SDS011;42691;47.234;27.494;2023-02-15T16:52:31;13.85;;;8.25;;
56810;SDS011;42691;47.234;27.494;2023-02-15T16:55:00;13.52;;;7.05;;
56810;SDS011;42691;47.234;27.494;2023-02-15T16:57:33;9.15;;;6.57;;
56810;SDS011;42691;47.234;27.494;2023-02-15T17:00:03;12.20;;;7.18;;
56810;SDS011;42691;47.234;27.494;2023-02-15T17:02:33;12.88;;;7.90;;
56810;SDS011;42691;47.234;27.494;2023-02-15T17:07:42;10.77;;;6.85;;
56810;SDS011;42691;47.234;27.494;2023-02-15T17:10:34;15.00;;;7.50;;
56810;SDS011;42691;47.234;27.494;2023-02-15T17:13:05;9.07;;;5.80;;
56810;SDS011;42691;47.234;27.494;2023-02-15T17:15:36;34.88;;;9.23;;
56810;SDS011;42691;47.234;27.494;2023-02-15T17:18:18;55.55;;;13.98;;
56810;SDS011;42691;47.234;27.494;2023-02-15T17:20:46;16.20;;;7.97;;
56810;SDS011;42691;47.234;27.494;2023-02-15T17:23:32;11.38;;;6.95;;
56810;SDS011;42691;47.234;27.494;2023-02-15T17:26:02;21.73;;;9.15;;
56810;SDS011;42691;47.234;27.494;2023-02-15T17:28:43;34.53;;;11.85;;
56810;SDS011;42691;47.234;27.494;2023-02-15T17:31:12;21.52;;;8.65;;
56810;SDS011;42691;47.234;27.494;2023-02-15T17:33:40;24.27;;;7.78;;
56810;SDS011;42691;47.234;27.494;2023-02-15T17:36:07;11.43;;;7.50;;
56810;SDS011;42691;47.234;27.494;2023-02-15T17:38:37;10.07;;;6.30;;
56810;SDS011;42691;47.234;27.494;2023-02-15T17:41:04;25.08;;;8.90;;
56810;SDS011;42691;47.234;27.494;2023-02-15T17:43:30;10.90;;;6.95;;
56810;SDS011;42691;47.234;27.494;2023-02-15T17:45:56;12.50;;;6.45;;
56810;SDS011;42691;47.234;27.494;2023-02-15T17:48:30;12.27;;;8.40;;
56810;SDS011;42691;47.234;27.494;2023-02-15T17:50:59;7.03;;;6.03;;
56810;SDS011;42691;47.234;27.494;2023-02-15T17:53:26;15.23;;;7.15;;
56810;SDS011;42691;47.234;27.494;2023-02-15T17:55:52;8.82;;;6.78;;
56810;SDS011;42691;47.234;27.494;2023-02-15T17:58:18;8.73;;;5.70;;
56810;SDS011;42691;47.234;27.494;2023-02-15T18:00:46;10.52;;;6.25;;